sensor_id;sensor_type;location;lat;lon;timestamp;P1;durP1;ratioP1;P2;durP2;ratioP2
71606;SDS011;60641;53.556;9.914;2022-09-13T00:02:08;6.90;;;2.40;;
71606;SDS011;60641;53.556;9.914;2022-09-13T00:04:34;9.00;;;2.80;;
71606;SDS011;60641;53.556;9.914;2022-09-13T00:07:00;8.10;;;2.70;;
71606;SDS011;60641;53.556;9.914;2022-09-13T00:09:27;7.10;;;2.80;;
71606;SDS011;60641;53.556;9.914;2022-09-13T00:11:53;7.50;;;2.70;;
71606;SDS011;60641;53.556;9.914;2022-09-13T00:14:19;8.00;;;2.80;;
71606;SDS011;60641;53.556;9.914;2022-09-13T00:16:46;6.60;;;2.50;;
71606;SDS011;60641;53.556;9.914;2022-09-13T00:19:12;6.00;;;2.60;;
71606;SDS011;60641;53.556;9.914;2022-09-13T00:21:38;5.80;;;2.40;;
71606;SDS011;60641;53.556;9.914;2022-09-13T00:24:05;7.00;;;2.50;;
71606;SDS011;60641;53.556;9.914;2022-09-13T00:26:31;8.50;;;2.80;;
71606;SDS011;60641;53.556;9.914;2022-09-13T00:28:58;6.90;;;2.50;;
71606;SDS011;60641;53.556;9.914;2022-09-13T00:31:25;7.10;;;2.30;;
71606;SDS011;60641;53.556;9.914;2022-09-13T00:33:53;6.10;;;2.40;;
71606;SDS011;60641;53.556;9.914;2022-09-13T00:36:19;6.00;;;2.50;;
71606;SDS011;60641;53.556;9.914;2022-09-13T00:38:46;7.80;;;2.40;;
71606;SDS011;60641;53.556;9.914;2022-09-13T00:41:14;7.20;;;2.70;;
71606;SDS011;60641;53.556;9.914;2022-09-13T00:43:43;6.20;;;2.60;;
71606;SDS011;60641;53.556;9.914;2022-09-13T00:46:11;6.60;;;2.40;;
71606;SDS011;60641;53.556;9.914;2022-09-13T00:48:39;7.70;;;2.70;;
71606;SDS011;60641;53.556;9.914;2022-09-13T00:51:06;5.90;;;2.40;;
71606;SDS011;60641;53.556;9.914;2022-09-13T00:53:35;6.00;;;2.60;;
71606;SDS011;60641;53.556;9.914;2022-09-13T00:56:08;5.80;;;2.60;;
71606;SDS011;60641;53.556;9.914;2022-09-13T00:58:42;6.90;;;2.90;;
71606;SDS011;60641;53.556;9.914;2022-09-13T01:01:11;8.50;;;3.00;;
71606;SDS011;60641;53.556;9.914;2022-09-13T01:03:39;7.40;;;2.60;;
71606;SDS011;60641;53.556;9.914;2022-09-13T01:06:07;9.10;;;2.90;;
71606;SDS011;60641;53.556;9.914;2022-09-13T01:08:37;8.50;;;2.80;;
71606;SDS011;60641;53.556;9.914;2022-09-13T01:11:05;6.60;;;2.80;;
71606;SDS011;60641;53.556;9.914;2022-09-13T01:13:37;8.50;;;3.40;;
71606;SDS011;60641;53.556;9.914;2022-09-13T01:16:03;8.50;;;3.20;;
71606;SDS011;60641;53.556;9.914;2022-09-13T01:18:30;7.80;;;3.30;;
71606;SDS011;60641;53.556;9.914;2022-09-13T01:29:27;7.90;;;3.30;;
71606;SDS011;60641;53.556;9.914;2022-09-13T01:48:08;7.70;;;3.30;;
71606;SDS011;60641;53.556;9.914;2022-09-13T01:50:52;6.70;;;3.00;;
71606;SDS011;60641;53.556;9.914;2022-09-13T01:53:46;7.10;;;3.40;;
71606;SDS011;60641;53.556;9.914;2022-09-13T01:56:22;8.10;;;3.50;;
71606;SDS011;60641;53.556;9.914;2022-09-13T01:58:57;7.50;;;3.50;;
71606;SDS011;60641;53.556;9.914;2022-09-13T02:01:31;7.30;;;3.50;;
71606;SDS011;60641;53.556;9.914;2022-09-13T02:06:27;7.10;;;3.30;;
71606;SDS011;60641;53.556;9.914;2022-09-13T02:08:57;7.60;;;3.30;;
71606;SDS011;60641;53.556;9.914;2022-09-13T02:11:26;7.90;;;3.50;;
71606;SDS011;60641;53.556;9.914;2022-09-13T02:14:06;8.10;;;3.30;;
71606;SDS011;60641;53.556;9.914;2022-09-13T02:16:51;7.20;;;3.20;;
71606;SDS011;60641;53.556;9.914;2022-09-13T02:19:23;9.00;;;3.50;;
71606;SDS011;60641;53.556;9.914;2022-09-13T02:21:55;7.30;;;3.20;;
71606;SDS011;60641;53.556;9.914;2022-09-13T02:24:27;8.30;;;4.00;;
71606;SDS011;60641;53.556;9.914;2022-09-13T02:26:55;9.30;;;3.90;;
71606;SDS011;60641;53.556;9.914;2022-09-13T02:29:25;8.70;;;3.90;;
71606;SDS011;60641;53.556;9.914;2022-09-13T02:31:55;13.60;;;3.80;;
71606;SDS011;60641;53.556;9.914;2022-09-13T02:34:23;8.00;;;3.70;;
71606;SDS011;60641;53.556;9.914;2022-09-13T02:36:53;7.60;;;3.50;;
71606;SDS011;60641;53.556;9.914;2022-09-13T02:39:21;7.30;;;3.80;;
71606;SDS011;60641;53.556;9.914;2022-09-13T02:41:57;8.80;;;3.80;;
71606;SDS011;60641;53.556;9.914;2022-09-13T02:52:45;8.20;;;4.00;;
71606;SDS011;60641;53.556;9.914;2022-09-13T02:55:23;8.10;;;4.00;;
71606;SDS011;60641;53.556;9.914;2022-09-13T02:58:17;8.20;;;4.10;;
71606;SDS011;60641;53.556;9.914;2022-09-13T03:00:46;9.50;;;4.10;;
71606;SDS011;60641;53.556;9.914;2022-09-13T03:03:13;9.30;;;4.10;;
71606;SDS011;60641;53.556;9.914;2022-09-13T03:05:41;10.20;;;4.30;;
71606;SDS011;60641;53.556;9.914;2022-09-13T03:08:09;10.10;;;4.20;;
71606;SDS011;60641;53.556;9.914;2022-09-13T03:10:48;9.90;;;4.30;;
71606;SDS011;60641;53.556;9.914;2022-09-13T03:22:02;9.60;;;4.40;;
71606;SDS011;60641;53.556;9.914;2022-09-13T03:30:33;9.10;;;4.40;;
71606;SDS011;60641;53.556;9.914;2022-09-13T03:36:52;9.00;;;4.70;;
71606;SDS011;60641;53.556;9.914;2022-09-13T03:41:28;11.60;;;5.70;;
71606;SDS011;60641;53.556;9.914;2022-09-13T03:44:01;10.40;;;5.60;;
71606;SDS011;60641;53.556;9.914;2022-09-13T03:46:43;11.30;;;6.00;;
71606;SDS011;60641;53.556;9.914;2022-09-13T03:49:13;11.20;;;6.00;;
71606;SDS011;60641;53.556;9.914;2022-09-13T03:51:44;13.20;;;6.20;;
71606;SDS011;60641;53.556;9.914;2022-09-13T03:54:23;12.00;;;5.70;;
71606;SDS011;60641;53.556;9.914;2022-09-13T03:59:38;12.80;;;6.40;;
71606;SDS011;60641;53.556;9.914;2022-09-13T04:02:06;13.20;;;7.10;;
71606;SDS011;60641;53.556;9.914;2022-09-13T04:04:39;16.50;;;7.30;;
71606;SDS011;60641;53.556;9.914;2022-09-13T04:07:07;13.00;;;6.90;;
71606;SDS011;60641;53.556;9.914;2022-09-13T04:09:34;11.40;;;6.70;;
71606;SDS011;60641;53.556;9.914;2022-09-13T04:12:01;13.00;;;7.20;;
71606;SDS011;60641;53.556;9.914;2022-09-13T04:14:28;13.50;;;7.00;;
71606;SDS011;60641;53.556;9.914;2022-09-13T04:16:55;14.60;;;7.30;;
71606;SDS011;60641;53.556;9.914;2022-09-13T04:19:22;13.40;;;6.90;;
71606;SDS011;60641;53.556;9.914;2022-09-13T04:21:50;22.60;;;8.30;;
71606;SDS011;60641;53.556;9.914;2022-09-13T04:24:18;16.10;;;7.50;;
71606;SDS011;60641;53.556;9.914;2022-09-13T04:26:48;24.80;;;9.50;;
71606;SDS011;60641;53.556;9.914;2022-09-13T04:29:16;16.00;;;7.60;;
71606;SDS011;60641;53.556;9.914;2022-09-13T04:31:46;18.90;;;7.90;;
71606;SDS011;60641;53.556;9.914;2022-09-13T04:34:13;16.20;;;8.10;;
71606;SDS011;60641;53.556;9.914;2022-09-13T04:36:40;14.30;;;7.90;;
71606;SDS011;60641;53.556;9.914;2022-09-13T04:39:06;17.70;;;7.90;;
71606;SDS011;60641;53.556;9.914;2022-09-13T04:41:33;14.40;;;6.70;;
71606;SDS011;60641;53.556;9.914;2022-09-13T04:43:59;14.00;;;7.40;;
71606;SDS011;60641;53.556;9.914;2022-09-13T04:46:26;14.50;;;7.20;;
71606;SDS011;60641;53.556;9.914;2022-09-13T04:48:53;15.10;;;7.90;;
71606;SDS011;60641;53.556;9.914;2022-09-13T04:51:20;16.00;;;7.40;;
71606;SDS011;60641;53.556;9.914;2022-09-13T04:53:53;14.60;;;8.00;;
71606;SDS011;60641;53.556;9.914;2022-09-13T04:56:20;17.50;;;7.90;;
71606;SDS011;60641;53.556;9.914;2022-09-13T04:58:51;16.60;;;7.60;;
71606;SDS011;60641;53.556;9.914;2022-09-13T05:01:19;12.80;;;7.60;;
71606;SDS011;60641;53.556;9.914;2022-09-13T05:03:46;14.80;;;8.50;;
71606;SDS011;60641;53.556;9.914;2022-09-13T05:06:14;13.40;;;8.20;;
71606;SDS011;60641;53.556;9.914;2022-09-13T05:08:43;14.40;;;8.00;;
71606;SDS011;60641;53.556;9.914;2022-09-13T05:11:10;15.00;;;8.50;;
71606;SDS011;60641;53.556;9.914;2022-09-13T05:13:36;17.10;;;8.10;;
71606;SDS011;60641;53.556;9.914;2022-09-13T05:16:04;15.30;;;9.10;;
71606;SDS011;60641;53.556;9.914;2022-09-13T05:18:33;14.10;;;8.30;;
71606;SDS011;60641;53.556;9.914;2022-09-13T05:21:02;17.30;;;9.80;;
71606;SDS011;60641;53.556;9.914;2022-09-13T05:23:29;16.10;;;8.80;;
71606;SDS011;60641;53.556;9.914;2022-09-13T05:25:58;15.00;;;8.40;;
71606;SDS011;60641;53.556;9.914;2022-09-13T05:28:29;16.80;;;9.40;;
71606;SDS011;60641;53.556;9.914;2022-09-13T05:30:58;13.00;;;7.40;;
71606;SDS011;60641;53.556;9.914;2022-09-13T05:33:26;14.80;;;9.30;;
71606;SDS011;60641;53.556;9.914;2022-09-13T05:35:54;16.10;;;9.50;;
71606;SDS011;60641;53.556;9.914;2022-09-13T05:38:21;18.30;;;9.70;;
71606;SDS011;60641;53.556;9.914;2022-09-13T05:55:18;20.40;;;11.30;;
71606;SDS011;60641;53.556;9.914;2022-09-13T05:57:44;20.60;;;10.40;;
71606;SDS011;60641;53.556;9.914;2022-09-13T06:02:52;17.80;;;10.80;;
71606;SDS011;60641;53.556;9.914;2022-09-13T06:05:18;18.50;;;10.70;;
71606;SDS011;60641;53.556;9.914;2022-09-13T06:07:45;17.40;;;10.40;;
71606;SDS011;60641;53.556;9.914;2022-09-13T06:10:11;20.50;;;11.20;;
71606;SDS011;60641;53.556;9.914;2022-09-13T06:12:38;17.20;;;10.90;;
71606;SDS011;60641;53.556;9.914;2022-09-13T06:15:41;19.00;;;11.10;;
71606;SDS011;60641;53.556;9.914;2022-09-13T06:18:07;18.00;;;10.50;;
71606;SDS011;60641;53.556;9.914;2022-09-13T06:20:34;18.10;;;10.20;;
71606;SDS011;60641;53.556;9.914;2022-09-13T06:23:00;20.10;;;10.20;;
71606;SDS011;60641;53.556;9.914;2022-09-13T06:25:27;18.30;;;10.90;;
71606;SDS011;60641;53.556;9.914;2022-09-13T06:28:46;19.50;;;11.20;;
71606;SDS011;60641;53.556;9.914;2022-09-13T06:31:14;19.80;;;10.80;;
71606;SDS011;60641;53.556;9.914;2022-09-13T06:33:42;21.10;;;10.30;;
71606;SDS011;60641;53.556;9.914;2022-09-13T06:36:09;18.60;;;10.30;;
71606;SDS011;60641;53.556;9.914;2022-09-13T06:38:40;20.00;;;10.90;;
71606;SDS011;60641;53.556;9.914;2022-09-13T06:41:08;18.40;;;11.00;;
71606;SDS011;60641;53.556;9.914;2022-09-13T06:44:00;17.30;;;10.70;;
71606;SDS011;60641;53.556;9.914;2022-09-13T06:46:28;16.40;;;9.10;;
71606;SDS011;60641;53.556;9.914;2022-09-13T06:49:06;18.40;;;10.90;;
71606;SDS011;60641;53.556;9.914;2022-09-13T06:51:34;21.30;;;10.40;;
71606;SDS011;60641;53.556;9.914;2022-09-13T06:54:01;17.50;;;10.20;;
71606;SDS011;60641;53.556;9.914;2022-09-13T06:56:33;16.40;;;9.50;;
71606;SDS011;60641;53.556;9.914;2022-09-13T06:59:02;16.00;;;8.90;;
71606;SDS011;60641;53.556;9.914;2022-09-13T07:01:37;17.40;;;9.50;;
71606;SDS011;60641;53.556;9.914;2022-09-13T07:06:33;15.90;;;8.90;;
71606;SDS011;60641;53.556;9.914;2022-09-13T07:09:02;18.00;;;8.90;;
71606;SDS011;60641;53.556;9.914;2022-09-13T07:11:33;19.80;;;9.40;;
71606;SDS011;60641;53.556;9.914;2022-09-13T07:14:02;15.30;;;8.40;;
71606;SDS011;60641;53.556;9.914;2022-09-13T07:16:29;16.20;;;9.00;;
71606;SDS011;60641;53.556;9.914;2022-09-13T07:18:57;14.00;;;8.20;;
71606;SDS011;60641;53.556;9.914;2022-09-13T07:21:25;15.30;;;7.70;;
71606;SDS011;60641;53.556;9.914;2022-09-13T07:23:52;20.30;;;8.80;;
71606;SDS011;60641;53.556;9.914;2022-09-13T07:26:19;14.60;;;7.50;;
71606;SDS011;60641;53.556;9.914;2022-09-13T07:28:46;13.90;;;8.00;;
71606;SDS011;60641;53.556;9.914;2022-09-13T07:31:15;17.10;;;8.40;;
71606;SDS011;60641;53.556;9.914;2022-09-13T07:33:46;17.30;;;8.10;;
71606;SDS011;60641;53.556;9.914;2022-09-13T07:36:12;13.60;;;7.20;;
71606;SDS011;60641;53.556;9.914;2022-09-13T07:38:40;16.10;;;7.60;;
71606;SDS011;60641;53.556;9.914;2022-09-13T07:41:11;14.00;;;7.20;;
71606;SDS011;60641;53.556;9.914;2022-09-13T07:43:39;15.20;;;7.60;;
71606;SDS011;60641;53.556;9.914;2022-09-13T07:46:07;15.50;;;8.10;;
71606;SDS011;60641;53.556;9.914;2022-09-13T07:48:39;15.90;;;7.60;;
71606;SDS011;60641;53.556;9.914;2022-09-13T07:51:16;12.40;;;6.60;;
71606;SDS011;60641;53.556;9.914;2022-09-13T07:53:50;12.80;;;6.90;;
71606;SDS011;60641;53.556;9.914;2022-09-13T07:56:19;13.80;;;6.80;;
71606;SDS011;60641;53.556;9.914;2022-09-13T07:58:47;14.30;;;6.60;;
71606;SDS011;60641;53.556;9.914;2022-09-13T08:01:17;12.80;;;5.80;;
71606;SDS011;60641;53.556;9.914;2022-09-13T08:03:49;11.90;;;5.40;;
71606;SDS011;60641;53.556;9.914;2022-09-13T08:06:26;12.40;;;5.60;;
71606;SDS011;60641;53.556;9.914;2022-09-13T08:08:54;13.30;;;5.00;;
71606;SDS011;60641;53.556;9.914;2022-09-13T08:11:22;13.20;;;6.90;;
71606;SDS011;60641;53.556;9.914;2022-09-13T08:13:50;10.90;;;4.60;;
71606;SDS011;60641;53.556;9.914;2022-09-13T08:16:18;14.70;;;6.20;;
71606;SDS011;60641;53.556;9.914;2022-09-13T08:18:46;12.30;;;5.20;;
71606;SDS011;60641;53.556;9.914;2022-09-13T08:21:15;11.10;;;4.40;;
71606;SDS011;60641;53.556;9.914;2022-09-13T08:23:42;10.90;;;4.90;;
71606;SDS011;60641;53.556;9.914;2022-09-13T08:26:08;14.20;;;3.90;;
71606;SDS011;60641;53.556;9.914;2022-09-13T08:28:36;10.00;;;2.80;;
71606;SDS011;60641;53.556;9.914;2022-09-13T08:31:07;13.70;;;3.30;;
71606;SDS011;60641;53.556;9.914;2022-09-13T08:33:35;8.50;;;2.90;;
71606;SDS011;60641;53.556;9.914;2022-09-13T08:36:03;10.30;;;2.30;;
71606;SDS011;60641;53.556;9.914;2022-09-13T08:38:30;8.00;;;1.90;;
71606;SDS011;60641;53.556;9.914;2022-09-13T08:40:58;7.10;;;1.60;;
71606;SDS011;60641;53.556;9.914;2022-09-13T08:46:41;8.50;;;1.70;;
71606;SDS011;60641;53.556;9.914;2022-09-13T08:49:00;8.60;;;1.70;;
71606;SDS011;60641;53.556;9.914;2022-09-13T08:54:15;9.50;;;1.50;;
71606;SDS011;60641;53.556;9.914;2022-09-13T09:05:24;9.00;;;1.50;;
71606;SDS011;60641;53.556;9.914;2022-09-13T09:07:57;6.70;;;1.10;;
71606;SDS011;60641;53.556;9.914;2022-09-13T09:10:43;8.80;;;1.30;;
71606;SDS011;60641;53.556;9.914;2022-09-13T09:15:52;5.00;;;0.90;;
71606;SDS011;60641;53.556;9.914;2022-09-13T09:18:24;7.70;;;1.00;;
71606;SDS011;60641;53.556;9.914;2022-09-13T09:20:55;6.60;;;0.90;;
71606;SDS011;60641;53.556;9.914;2022-09-13T09:23:24;5.60;;;0.70;;
71606;SDS011;60641;53.556;9.914;2022-09-13T09:26:15;7.70;;;0.70;;
71606;SDS011;60641;53.556;9.914;2022-09-13T09:28:48;7.00;;;1.20;;
71606;SDS011;60641;53.556;9.914;2022-09-13T09:38:58;5.50;;;0.90;;
71606;SDS011;60641;53.556;9.914;2022-09-13T09:41:28;5.90;;;0.90;;
71606;SDS011;60641;53.556;9.914;2022-09-13T09:44:04;7.60;;;1.00;;
71606;SDS011;60641;53.556;9.914;2022-09-13T09:46:46;7.40;;;1.10;;
71606;SDS011;60641;53.556;9.914;2022-09-13T09:49:23;6.10;;;1.00;;
71606;SDS011;60641;53.556;9.914;2022-09-13T09:52:11;8.00;;;1.10;;
71606;SDS011;60641;53.556;9.914;2022-09-13T09:54:40;9.40;;;1.30;;
71606;SDS011;60641;53.556;9.914;2022-09-13T09:57:06;4.40;;;1.10;;
71606;SDS011;60641;53.556;9.914;2022-09-13T09:59:33;10.70;;;1.30;;
71606;SDS011;60641;53.556;9.914;2022-09-13T10:02:01;5.20;;;0.90;;
71606;SDS011;60641;53.556;9.914;2022-09-13T10:04:37;7.20;;;1.00;;
71606;SDS011;60641;53.556;9.914;2022-09-13T10:10:41;6.60;;;1.10;;
71606;SDS011;60641;53.556;9.914;2022-09-13T10:12:48;5.90;;;0.90;;
71606;SDS011;60641;53.556;9.914;2022-09-13T10:15:17;8.60;;;1.00;;
71606;SDS011;60641;53.556;9.914;2022-09-13T10:20:41;9.40;;;1.20;;
71606;SDS011;60641;53.556;9.914;2022-09-13T10:23:09;4.30;;;1.00;;
71606;SDS011;60641;53.556;9.914;2022-09-13T10:25:37;7.60;;;1.30;;
71606;SDS011;60641;53.556;9.914;2022-09-13T10:28:05;7.40;;;1.30;;
71606;SDS011;60641;53.556;9.914;2022-09-13T10:30:38;8.30;;;1.30;;
71606;SDS011;60641;53.556;9.914;2022-09-13T10:35:49;5.30;;;0.90;;
71606;SDS011;60641;53.556;9.914;2022-09-13T10:38:41;5.80;;;1.10;;
71606;SDS011;60641;53.556;9.914;2022-09-13T10:41:18;3.80;;;1.10;;
71606;SDS011;60641;53.556;9.914;2022-09-13T10:43:55;6.40;;;1.30;;
71606;SDS011;60641;53.556;9.914;2022-09-13T10:46:23;5.40;;;1.10;;
71606;SDS011;60641;53.556;9.914;2022-09-13T10:48:49;9.00;;;1.00;;
71606;SDS011;60641;53.556;9.914;2022-09-13T10:56:40;4.80;;;1.10;;
71606;SDS011;60641;53.556;9.914;2022-09-13T11:02:02;7.20;;;1.00;;
71606;SDS011;60641;53.556;9.914;2022-09-13T11:04:38;4.10;;;0.80;;
71606;SDS011;60641;53.556;9.914;2022-09-13T11:07:25;8.70;;;1.10;;
71606;SDS011;60641;53.556;9.914;2022-09-13T11:10:06;4.50;;;1.00;;
71606;SDS011;60641;53.556;9.914;2022-09-13T11:18:12;6.20;;;1.30;;
71606;SDS011;60641;53.556;9.914;2022-09-13T11:29:58;5.00;;;0.90;;
71606;SDS011;60641;53.556;9.914;2022-09-13T11:46:07;6.00;;;0.90;;
71606;SDS011;60641;53.556;9.914;2022-09-13T11:53:56;4.50;;;0.90;;
71606;SDS011;60641;53.556;9.914;2022-09-13T11:56:29;6.80;;;0.90;;
71606;SDS011;60641;53.556;9.914;2022-09-13T12:02:01;5.80;;;0.90;;
71606;SDS011;60641;53.556;9.914;2022-09-13T12:04:42;5.80;;;1.00;;
71606;SDS011;60641;53.556;9.914;2022-09-13T12:07:15;6.20;;;0.90;;
71606;SDS011;60641;53.556;9.914;2022-09-13T12:10:31;10.30;;;1.30;;
71606;SDS011;60641;53.556;9.914;2022-09-13T12:12:53;8.80;;;1.00;;
71606;SDS011;60641;53.556;9.914;2022-09-13T12:18:01;4.30;;;0.90;;
71606;SDS011;60641;53.556;9.914;2022-09-13T12:21:09;5.70;;;1.10;;
71606;SDS011;60641;53.556;9.914;2022-09-13T12:23:50;6.30;;;1.00;;
71606;SDS011;60641;53.556;9.914;2022-09-13T12:29:26;6.60;;;1.10;;
71606;SDS011;60641;53.556;9.914;2022-09-13T12:32:01;7.90;;;1.10;;
71606;SDS011;60641;53.556;9.914;2022-09-13T12:34:40;9.90;;;1.20;;
71606;SDS011;60641;53.556;9.914;2022-09-13T12:40:02;7.60;;;1.10;;
71606;SDS011;60641;53.556;9.914;2022-09-13T12:45:42;6.70;;;1.20;;
71606;SDS011;60641;53.556;9.914;2022-09-13T12:48:22;6.60;;;1.10;;
71606;SDS011;60641;53.556;9.914;2022-09-13T12:53:59;6.00;;;1.00;;
71606;SDS011;60641;53.556;9.914;2022-09-13T12:56:46;6.20;;;1.30;;
71606;SDS011;60641;53.556;9.914;2022-09-13T12:59:41;6.90;;;1.00;;
71606;SDS011;60641;53.556;9.914;2022-09-13T13:04:53;11.30;;;1.10;;
71606;SDS011;60641;53.556;9.914;2022-09-13T13:07:22;6.50;;;0.90;;
71606;SDS011;60641;53.556;9.914;2022-09-13T13:09:52;7.70;;;1.10;;
71606;SDS011;60641;53.556;9.914;2022-09-13T13:15:11;5.90;;;1.20;;
71606;SDS011;60641;53.556;9.914;2022-09-13T13:17:53;7.60;;;1.20;;
71606;SDS011;60641;53.556;9.914;2022-09-13T13:25:56;7.10;;;1.20;;
71606;SDS011;60641;53.556;9.914;2022-09-13T13:39:12;11.10;;;1.30;;
71606;SDS011;60641;53.556;9.914;2022-09-13T13:49:44;5.30;;;0.90;;
71606;SDS011;60641;53.556;9.914;2022-09-13T13:52:37;10.60;;;1.00;;
71606;SDS011;60641;53.556;9.914;2022-09-13T13:55:22;6.70;;;1.00;;
71606;SDS011;60641;53.556;9.914;2022-09-13T13:58:00;6.60;;;1.10;;
71606;SDS011;60641;53.556;9.914;2022-09-13T14:00:30;8.20;;;1.10;;
71606;SDS011;60641;53.556;9.914;2022-09-13T14:03:07;6.70;;;0.90;;
71606;SDS011;60641;53.556;9.914;2022-09-13T14:14:01;8.10;;;1.00;;
71606;SDS011;60641;53.556;9.914;2022-09-13T14:19:22;8.50;;;1.10;;
71606;SDS011;60641;53.556;9.914;2022-09-13T14:24:40;9.30;;;1.30;;
71606;SDS011;60641;53.556;9.914;2022-09-13T14:27:22;7.20;;;1.10;;
71606;SDS011;60641;53.556;9.914;2022-09-13T14:29:57;8.90;;;1.20;;
71606;SDS011;60641;53.556;9.914;2022-09-13T14:32:26;5.10;;;1.00;;
71606;SDS011;60641;53.556;9.914;2022-09-13T14:34:58;7.00;;;1.30;;
71606;SDS011;60641;53.556;9.914;2022-09-13T14:37:27;12.20;;;1.20;;
71606;SDS011;60641;53.556;9.914;2022-09-13T14:39:56;7.10;;;1.20;;
71606;SDS011;60641;53.556;9.914;2022-09-13T14:42:44;7.40;;;0.80;;
71606;SDS011;60641;53.556;9.914;2022-09-13T14:45:13;10.90;;;1.10;;
71606;SDS011;60641;53.556;9.914;2022-09-13T14:50:17;8.40;;;1.30;;
71606;SDS011;60641;53.556;9.914;2022-09-13T14:52:50;6.80;;;0.80;;
71606;SDS011;60641;53.556;9.914;2022-09-13T14:55:20;10.20;;;1.10;;
71606;SDS011;60641;53.556;9.914;2022-09-13T14:57:52;10.80;;;1.00;;
71606;SDS011;60641;53.556;9.914;2022-09-13T15:00:23;6.60;;;1.00;;
71606;SDS011;60641;53.556;9.914;2022-09-13T15:02:51;6.00;;;1.00;;
71606;SDS011;60641;53.556;9.914;2022-09-13T15:05:20;9.30;;;1.20;;
71606;SDS011;60641;53.556;9.914;2022-09-13T15:07:48;7.70;;;1.00;;
71606;SDS011;60641;53.556;9.914;2022-09-13T15:20:22;6.80;;;0.90;;
71606;SDS011;60641;53.556;9.914;2022-09-13T15:22:49;8.90;;;1.00;;
71606;SDS011;60641;53.556;9.914;2022-09-13T15:25:34;9.20;;;1.20;;
71606;SDS011;60641;53.556;9.914;2022-09-13T15:28:00;8.80;;;1.10;;
71606;SDS011;60641;53.556;9.914;2022-09-13T15:30:31;6.50;;;1.00;;
71606;SDS011;60641;53.556;9.914;2022-09-13T15:35:38;8.50;;;1.30;;
71606;SDS011;60641;53.556;9.914;2022-09-13T15:38:22;10.60;;;1.20;;
71606;SDS011;60641;53.556;9.914;2022-09-13T15:40:59;11.60;;;1.10;;
71606;SDS011;60641;53.556;9.914;2022-09-13T15:43:39;7.20;;;1.00;;
71606;SDS011;60641;53.556;9.914;2022-09-13T15:46:05;7.80;;;1.20;;
71606;SDS011;60641;53.556;9.914;2022-09-13T15:48:34;7.80;;;1.10;;
71606;SDS011;60641;53.556;9.914;2022-09-13T15:51:13;6.70;;;1.00;;
71606;SDS011;60641;53.556;9.914;2022-09-13T15:53:41;7.10;;;1.20;;
71606;SDS011;60641;53.556;9.914;2022-09-13T15:56:13;6.90;;;1.10;;
71606;SDS011;60641;53.556;9.914;2022-09-13T15:58:44;7.70;;;1.10;;
71606;SDS011;60641;53.556;9.914;2022-09-13T16:01:13;8.60;;;1.10;;
71606;SDS011;60641;53.556;9.914;2022-09-13T16:03:40;6.60;;;0.90;;
71606;SDS011;60641;53.556;9.914;2022-09-13T16:06:07;6.90;;;1.00;;
71606;SDS011;60641;53.556;9.914;2022-09-13T16:08:37;6.50;;;1.10;;
71606;SDS011;60641;53.556;9.914;2022-09-13T16:11:04;6.70;;;0.90;;
71606;SDS011;60641;53.556;9.914;2022-09-13T16:13:31;6.90;;;0.90;;
71606;SDS011;60641;53.556;9.914;2022-09-13T16:15:57;5.30;;;0.80;;
71606;SDS011;60641;53.556;9.914;2022-09-13T16:18:24;5.30;;;0.90;;
71606;SDS011;60641;53.556;9.914;2022-09-13T16:20:51;9.70;;;1.20;;
71606;SDS011;60641;53.556;9.914;2022-09-13T16:23:17;4.80;;;0.90;;
71606;SDS011;60641;53.556;9.914;2022-09-13T16:25:43;9.50;;;1.00;;
71606;SDS011;60641;53.556;9.914;2022-09-13T16:28:17;6.00;;;1.00;;
71606;SDS011;60641;53.556;9.914;2022-09-13T16:30:47;5.80;;;0.90;;
71606;SDS011;60641;53.556;9.914;2022-09-13T16:33:14;8.50;;;1.10;;
71606;SDS011;60641;53.556;9.914;2022-09-13T16:35:40;7.10;;;1.10;;
71606;SDS011;60641;53.556;9.914;2022-09-13T16:38:08;4.90;;;0.90;;
71606;SDS011;60641;53.556;9.914;2022-09-13T16:40:37;5.90;;;1.00;;
71606;SDS011;60641;53.556;9.914;2022-09-13T16:43:05;6.50;;;0.90;;
71606;SDS011;60641;53.556;9.914;2022-09-13T16:45:32;6.50;;;0.80;;
71606;SDS011;60641;53.556;9.914;2022-09-13T16:47:58;5.00;;;0.60;;
71606;SDS011;60641;53.556;9.914;2022-09-13T16:50:25;5.30;;;0.80;;
71606;SDS011;60641;53.556;9.914;2022-09-13T16:52:51;4.50;;;0.70;;
71606;SDS011;60641;53.556;9.914;2022-09-13T16:55:18;5.70;;;0.80;;
71606;SDS011;60641;53.556;9.914;2022-09-13T16:57:44;5.30;;;0.90;;
71606;SDS011;60641;53.556;9.914;2022-09-13T17:00:13;6.70;;;1.10;;
71606;SDS011;60641;53.556;9.914;2022-09-13T17:02:40;9.40;;;1.30;;
71606;SDS011;60641;53.556;9.914;2022-09-13T17:05:06;6.40;;;0.90;;
71606;SDS011;60641;53.556;9.914;2022-09-13T17:07:33;7.40;;;0.90;;
71606;SDS011;60641;53.556;9.914;2022-09-13T17:10:02;10.40;;;1.90;;
71606;SDS011;60641;53.556;9.914;2022-09-13T17:12:30;7.70;;;1.60;;
71606;SDS011;60641;53.556;9.914;2022-09-13T17:14:57;6.30;;;1.20;;
71606;SDS011;60641;53.556;9.914;2022-09-13T17:17:24;5.90;;;1.20;;
71606;SDS011;60641;53.556;9.914;2022-09-13T17:19:51;8.60;;;1.60;;
71606;SDS011;60641;53.556;9.914;2022-09-13T17:22:17;8.10;;;0.90;;
71606;SDS011;60641;53.556;9.914;2022-09-13T17:24:44;7.30;;;1.40;;
71606;SDS011;60641;53.556;9.914;2022-09-13T17:27:10;6.20;;;1.10;;
71606;SDS011;60641;53.556;9.914;2022-09-13T17:29:36;6.20;;;1.00;;
71606;SDS011;60641;53.556;9.914;2022-09-13T17:32:04;8.80;;;1.30;;
71606;SDS011;60641;53.556;9.914;2022-09-13T17:34:31;8.60;;;1.10;;
71606;SDS011;60641;53.556;9.914;2022-09-13T17:37:00;8.30;;;1.70;;
71606;SDS011;60641;53.556;9.914;2022-09-13T17:39:28;20.20;;;3.00;;
71606;SDS011;60641;53.556;9.914;2022-09-13T17:41:55;8.90;;;1.50;;
71606;SDS011;60641;53.556;9.914;2022-09-13T17:44:23;9.90;;;1.30;;
71606;SDS011;60641;53.556;9.914;2022-09-13T17:46:49;4.90;;;0.90;;
71606;SDS011;60641;53.556;9.914;2022-09-13T17:49:32;12.50;;;1.30;;
71606;SDS011;60641;53.556;9.914;2022-09-13T17:52:03;6.70;;;1.00;;
71606;SDS011;60641;53.556;9.914;2022-09-13T17:54:40;9.80;;;1.10;;
71606;SDS011;60641;53.556;9.914;2022-09-13T17:57:16;8.10;;;1.00;;
71606;SDS011;60641;53.556;9.914;2022-09-13T17:59:44;5.00;;;0.90;;
71606;SDS011;60641;53.556;9.914;2022-09-13T18:02:21;7.80;;;1.30;;
71606;SDS011;60641;53.556;9.914;2022-09-13T18:04:48;10.50;;;2.70;;
71606;SDS011;60641;53.556;9.914;2022-09-13T18:07:18;9.00;;;1.20;;
71606;SDS011;60641;53.556;9.914;2022-09-13T18:09:44;8.80;;;1.00;;
71606;SDS011;60641;53.556;9.914;2022-09-13T18:12:11;7.10;;;1.10;;
71606;SDS011;60641;53.556;9.914;2022-09-13T18:14:38;5.90;;;1.30;;
71606;SDS011;60641;53.556;9.914;2022-09-13T18:17:04;9.70;;;1.30;;
71606;SDS011;60641;53.556;9.914;2022-09-13T18:19:38;6.40;;;1.10;;
71606;SDS011;60641;53.556;9.914;2022-09-13T18:22:06;6.30;;;1.00;;
71606;SDS011;60641;53.556;9.914;2022-09-13T18:24:38;8.30;;;1.80;;
71606;SDS011;60641;53.556;9.914;2022-09-13T18:27:05;6.00;;;1.20;;
71606;SDS011;60641;53.556;9.914;2022-09-13T18:29:31;7.40;;;1.00;;
71606;SDS011;60641;53.556;9.914;2022-09-13T18:31:58;6.90;;;1.50;;
71606;SDS011;60641;53.556;9.914;2022-09-13T18:34:24;8.50;;;1.00;;
71606;SDS011;60641;53.556;9.914;2022-09-13T18:36:51;4.60;;;0.80;;
71606;SDS011;60641;53.556;9.914;2022-09-13T18:39:20;7.00;;;1.00;;
71606;SDS011;60641;53.556;9.914;2022-09-13T18:41:47;4.70;;;0.70;;
71606;SDS011;60641;53.556;9.914;2022-09-13T18:44:15;8.20;;;1.00;;
71606;SDS011;60641;53.556;9.914;2022-09-13T18:46:42;6.10;;;1.10;;
71606;SDS011;60641;53.556;9.914;2022-09-13T18:49:09;8.50;;;1.20;;
71606;SDS011;60641;53.556;9.914;2022-09-13T18:51:39;6.10;;;0.90;;
71606;SDS011;60641;53.556;9.914;2022-09-13T18:54:07;6.60;;;0.90;;
71606;SDS011;60641;53.556;9.914;2022-09-13T18:56:36;7.40;;;1.20;;